Time;durP1;ratioP1;P1;durP2;ratioP2;P2;SDS_P1;SDS_P2;PMS_P1;PMS_P2;Temp;Humidity;BMP_temperature;BMP_pressure;BME280_temperature;BME280_humidity;BME280_pressure;Samples;Min_cycle;Max_cycle;Signal;HPM_P1;HPM_P2
2022/06/06 00:02:00;;;;;;;42.30;24.10;;;17.70;82.90;;;;;;5040797;28;20034;-68
2022/06/06 00:04:28;;;;;;;42.47;24.33;;;17.70;82.80;;;;;;5041301;28;20063;-67
2022/06/06 00:06:56;;;;;;;41.55;24.20;;;17.70;82.70;;;;;;5037586;28;20445;-67
2022/06/06 00:09:23;;;;;;;34.90;22.17;;;17.60;82.50;;;;;;5040987;28;20119;-67
2022/06/06 00:11:48;;;;;;;36.88;22.83;;;17.60;82.50;;;;;;5053397;28;20035;-68
2022/06/06 00:14:16;;;;;;;36.67;23.00;;;17.60;82.60;;;;;;5047427;28;20466;-67
2022/06/06 00:16:42;;;;;;;37.30;22.75;;;17.50;82.50;;;;;;5042597;28;20036;-67
2022/06/06 00:19:10;;;;;;;37.67;22.85;;;17.50;82.50;;;;;;5042676;28;20058;-67
2022/06/06 00:21:37;;;;;;;38.78;23.60;;;17.40;82.50;;;;;;5053863;28;20036;-68
2022/06/06 00:24:03;;;;;;;34.13;22.00;;;17.40;82.50;;;;;;5044142;28;20075;-68
2022/06/06 00:26:31;;;;;;;36.75;22.70;;;17.40;82.40;;;;;;5042353;28;20124;-67
2022/06/06 00:28:57;;;;;;;29.70;20.23;;;17.40;82.30;;;;;;5042403;28;20044;-67
2022/06/06 00:36:54;;;;;;;32.75;20.58;;;17.30;82.20;;;;;;5040384;28;20029;-67
2022/06/06 00:39:20;;;;;;;28.70;19.88;;;17.30;82.30;;;;;;5051589;28;20082;-67
2022/06/06 00:41:49;;;;;;;31.45;20.38;;;17.30;82.20;;;;;;5053184;28;20037;-67
2022/06/06 00:44:23;;;;;;;31.48;20.02;;;17.30;82.10;;;;;;5039408;28;20029;-67
2022/06/06 00:46:59;;;;;;;29.55;18.92;;;17.30;82.00;;;;;;5044209;28;20053;-67
2022/06/06 00:49:34;;;;;;;29.25;18.55;;;17.30;82.00;;;;;;5036408;28;20063;-67
2022/06/06 00:52:01;;;;;;;28.90;18.88;;;17.30;81.80;;;;;;5035500;28;20029;-67
2022/06/06 00:54:28;;;;;;;25.35;16.45;;;17.30;81.80;;;;;;5037639;28;20040;-67
2022/06/06 00:56:59;;;;;;;28.77;18.65;;;17.30;81.80;;;;;;5037519;28;20029;-67
2022/06/06 00:59:29;;;;;;;22.08;14.80;;;17.20;81.80;;;;;;5036869;28;20022;-67
2022/06/06 01:01:56;;;;;;;25.17;15.02;;;17.20;81.90;;;;;;5038495;28;20095;-67
2022/06/06 01:04:25;;;;;;;23.65;14.38;;;17.20;81.90;;;;;;5037664;28;20351;-67
2022/06/06 01:06:52;;;;;;;23.08;13.82;;;17.20;81.90;;;;;;5037868;28;20037;-67
2022/06/06 01:09:20;;;;;;;22.77;15.38;;;17.20;81.90;;;;;;5019692;28;20025;-67
2022/06/06 01:11:48;;;;;;;23.33;14.30;;;17.20;81.80;;;;;;5056494;28;20143;-67
2022/06/06 01:14:18;;;;;;;20.08;13.10;;;17.20;81.80;;;;;;5037654;28;20044;-67
2022/06/06 01:16:58;;;;;;;22.08;13.52;;;17.20;81.80;;;;;;5036419;28;20026;-67
2022/06/06 01:19:54;;;;;;;20.70;13.05;;;17.30;81.70;;;;;;5037041;28;20037;-67
2022/06/06 01:22:38;;;;;;;23.67;13.52;;;17.30;81.60;;;;;;5038145;28;20025;-67
2022/06/06 01:25:25;;;;;;;24.90;13.48;;;17.30;81.50;;;;;;5038435;28;20025;-67
2022/06/06 01:28:05;;;;;;;20.42;13.27;;;17.30;81.50;;;;;;5036153;28;20041;-67
2022/06/06 01:30:44;;;;;;;23.75;13.45;;;17.30;81.60;;;;;;5036585;28;20029;-67
2022/06/06 01:33:12;;;;;;;24.02;13.75;;;17.30;81.50;;;;;;5037265;28;20367;-67
2022/06/06 01:35:44;;;;;;;23.83;14.13;;;17.30;81.60;;;;;;5037002;28;20025;-67
2022/06/06 01:38:12;;;;;;;23.98;13.88;;;17.20;81.60;;;;;;5036957;28;20030;-67
2022/06/06 01:41:08;;;;;;;21.95;12.63;;;17.20;81.70;;;;;;5036911;28;20036;-67
2022/06/06 01:43:50;;;;;;;21.25;13.10;;;17.20;81.80;;;;;;5036479;28;20056;-67
2022/06/06 01:46:26;;;;;;;23.77;13.57;;;17.20;81.80;;;;;;5035486;28;20110;-67
2022/06/06 01:48:53;;;;;;;20.92;11.80;;;17.20;81.90;;;;;;5036693;28;20064;-67
2022/06/06 01:51:25;;;;;;;21.58;12.73;;;17.20;81.90;;;;;;5036566;28;20030;-67
2022/06/06 01:53:52;;;;;;;19.85;12.18;;;17.20;81.90;;;;;;5035003;28;20109;-67
2022/06/06 01:56:27;;;;;;;21.13;12.75;;;17.20;81.90;;;;;;5042538;28;20025;-67
2022/06/06 01:58:52;;;;;;;17.33;11.60;;;17.20;81.80;;;;;;5043760;28;20363;-68
2022/06/06 02:01:19;;;;;;;19.17;12.32;;;17.10;81.90;;;;;;5036571;28;20063;-67
2022/06/06 02:03:45;;;;;;;19.95;12.50;;;17.20;81.90;;;;;;5035531;28;20037;-67
2022/06/06 02:06:11;;;;;;;19.83;12.23;;;17.20;81.90;;;;;;5036196;28;20025;-67
2022/06/06 02:08:37;;;;;;;18.77;12.32;;;17.20;81.80;;;;;;5035127;28;20465;-67
2022/06/06 02:11:03;;;;;;;19.60;12.35;;;17.20;81.80;;;;;;5036189;28;20041;-67
2022/06/06 02:13:29;;;;;;;18.20;12.10;;;17.20;81.70;;;;;;5035654;28;20034;-67
2022/06/06 02:15:55;;;;;;;20.25;12.32;;;17.20;81.60;;;;;;5036101;28;20018;-67
2022/06/06 02:18:22;;;;;;;19.35;12.32;;;17.20;81.60;;;;;;5035408;28;20021;-67
2022/06/06 02:20:48;;;;;;;20.02;12.18;;;17.20;81.50;;;;;;5036218;28;20029;-67
2022/06/06 02:23:14;;;;;;;20.20;12.38;;;17.20;81.60;;;;;;5055697;28;20028;-67
2022/06/06 02:25:40;;;;;;;21.67;11.73;;;17.20;81.50;;;;;;5054638;28;20033;-66
2022/06/06 02:28:06;;;;;;;20.70;12.07;;;17.20;81.60;;;;;;5035476;28;20040;-66
2022/06/06 02:30:34;;;;;;;20.77;12.93;;;17.30;81.60;;;;;;5035917;28;20030;-66
2022/06/06 02:33:00;;;;;;;24.10;13.85;;;17.30;81.50;;;;;;5035617;28;20029;-66
2022/06/06 02:35:33;;;;;;;25.13;14.20;;;17.30;81.50;;;;;;5035468;28;20029;-66
2022/06/06 02:37:59;;;;;;;24.38;15.63;;;17.30;81.50;;;;;;5036029;28;20421;-67
2022/06/06 02:40:27;;;;;;;24.17;15.77;;;17.20;81.50;;;;;;5035647;28;20033;-66
2022/06/06 02:42:53;;;;;;;26.92;14.68;;;17.30;81.60;;;;;;5035672;28;20066;-66
2022/06/06 02:45:19;;;;;;;26.35;15.68;;;17.30;81.70;;;;;;5035604;28;20033;-67
2022/06/06 02:47:47;;;;;;;25.33;16.25;;;17.30;81.80;;;;;;5035608;28;20108;-67
2022/06/06 02:50:16;;;;;;;23.58;15.85;;;17.30;81.80;;;;;;5035276;28;20060;-66
2022/06/06 02:52:43;;;;;;;29.13;16.83;;;17.30;81.80;;;;;;5036218;28;20040;-66
2022/06/06 02:55:13;;;;;;;26.60;16.77;;;17.30;81.80;;;;;;5035508;28;20029;-66
2022/06/06 02:57:46;;;;;;;27.95;17.63;;;17.30;81.70;;;;;;5036833;28;20413;-66
2022/06/06 03:00:16;;;;;;;27.52;16.52;;;17.30;81.70;;;;;;5035268;28;20043;-66
2022/06/06 03:02:41;;;;;;;27.92;16.55;;;17.30;81.70;;;;;;5044177;28;20028;-66
2022/06/06 03:05:08;;;;;;;25.48;16.58;;;17.30;81.60;;;;;;5041733;28;20022;-66
2022/06/06 03:08:20;;;;;;;28.65;16.77;;;17.30;81.60;;;;;;5041146;28;20056;-66
2022/06/06 03:11:07;;;;;;;24.33;14.13;;;17.30;81.50;;;;;;5037652;28;20044;-66
2022/06/06 03:13:52;;;;;;;26.88;16.17;;;17.30;81.60;;;;;;5055911;28;20025;-66
2022/06/06 03:22:59;;;;;;;31.58;17.48;;;17.30;81.60;;;;;;5035435;28;20094;-65
2022/06/06 03:25:30;;;;;;;24.65;15.43;;;17.30;81.60;;;;;;5020152;28;20033;-66
2022/06/06 03:28:14;;;;;;;27.17;17.13;;;17.20;81.70;;;;;;5035020;28;20028;-66
2022/06/06 03:30:50;;;;;;;24.85;16.38;;;17.20;81.80;;;;;;5040518;28;20030;-66
2022/06/06 03:33:45;;;;;;;27.85;16.55;;;17.20;81.90;;;;;;5034821;28;20052;-66
2022/06/06 03:36:16;;;;;;;27.88;15.65;;;17.20;81.90;;;;;;5052006;28;20032;-66
2022/06/06 03:39:02;;;;;;;29.70;18.35;;;17.30;82.00;;;;;;5049299;28;20120;-66
2022/06/06 03:41:46;;;;;;;27.52;17.25;;;17.30;82.00;;;;;;5034012;28;20022;-66
2022/06/06 03:44:24;;;;;;;28.02;17.17;;;17.30;82.00;;;;;;5034339;28;20087;-66
2022/06/06 03:47:02;;;;;;;24.33;16.92;;;17.30;82.00;;;;;;5038098;28;20369;-67
2022/06/06 03:49:54;;;;;;;30.48;16.23;;;17.30;82.00;;;;;;5034584;28;20038;-66
2022/06/06 03:52:27;;;;;;;30.73;16.88;;;17.30;82.00;;;;;;5034821;28;20040;-66
2022/06/06 03:55:19;;;;;;;25.33;16.08;;;17.30;82.00;;;;;;5034748;28;20041;-66
2022/06/06 03:57:47;;;;;;;27.52;16.42;;;17.30;82.00;;;;;;5034551;28;20108;-66
2022/06/06 04:00:14;;;;;;;25.13;14.68;;;17.30;81.90;;;;;;5034552;28;20032;-68
2022/06/06 04:02:44;;;;;;;22.30;14.82;;;17.30;82.00;;;;;;5034453;28;20029;-66
2022/06/06 04:05:16;;;;;;;23.92;14.43;;;17.30;82.00;;;;;;5035195;28;20036;-66
2022/06/06 04:07:42;;;;;;;23.48;14.25;;;17.30;82.00;;;;;;5034938;28;20513;-66
2022/06/06 04:10:09;;;;;;;25.48;14.90;;;17.30;81.90;;;;;;5034702;28;20061;-66
2022/06/06 04:12:56;;;;;;;24.10;14.60;;;17.30;81.90;;;;;;5034307;28;20355;-66
2022/06/06 04:15:28;;;;;;;21.67;13.13;;;17.40;82.00;;;;;;5033702;28;20033;-66
2022/06/06 04:18:10;;;;;;;22.33;12.82;;;17.40;82.00;;;;;;5035680;28;20041;-66
2022/06/06 04:20:49;;;;;;;22.40;14.32;;;17.30;81.90;;;;;;5050768;28;20439;-66
2022/06/06 04:23:46;;;;;;;22.95;14.98;;;17.30;82.00;;;;;;5039009;28;20441;-65
2022/06/06 04:26:31;;;;;;;23.20;14.10;;;17.30;82.00;;;;;;5038633;28;20086;-66
2022/06/06 04:29:30;;;;;;;26.45;16.08;;;17.30;82.00;;;;;;5037937;28;20457;-66
2022/06/06 04:32:14;;;;;;;27.75;16.15;;;17.30;81.90;;;;;;5038006;28;20461;-66
2022/06/06 04:35:03;;;;;;;34.95;20.02;;;17.40;81.90;;;;;;5038957;28;20142;-65
2022/06/06 04:37:49;;;;;;;30.73;19.27;;;17.30;81.80;;;;;;5037513;28;20382;-66
2022/06/06 04:40:39;;;;;;;34.25;20.38;;;17.30;81.80;;;;;;5036200;28;20099;-66
2022/06/06 04:43:16;;;;;;;32.63;19.90;;;17.30;81.70;;;;;;5038393;28;20075;-66
2022/06/06 04:46:05;;;;;;;30.83;19.90;;;17.30;81.80;;;;;;5039449;28;20450;-65
2022/06/06 04:48:34;;;;;;;32.53;19.50;;;17.30;81.50;;;;;;5041489;28;20116;-65
2022/06/06 04:51:00;;;;;;;31.33;19.58;;;17.20;81.50;;;;;;5056939;28;20037;-65
2022/06/06 04:53:28;;;;;;;31.67;20.70;;;17.20;81.30;;;;;;5055803;28;20028;-66
2022/06/06 04:55:56;;;;;;;29.27;18.95;;;17.30;81.20;;;;;;5056881;28;20029;-66
2022/06/06 04:58:25;;;;;;;27.35;19.42;;;17.30;81.00;;;;;;5055756;28;20025;-66
2022/06/06 05:00:51;;;;;;;26.17;17.90;;;17.30;80.90;;;;;;5051429;28;20021;-65
2022/06/06 05:03:16;;;;;;;25.52;17.73;;;17.40;80.70;;;;;;5040191;28;20021;-65
2022/06/06 05:06:09;;;;;;;27.58;18.75;;;17.40;80.50;;;;;;5038240;28;20104;-65
2022/06/06 05:08:50;;;;;;;27.67;17.02;;;17.40;80.10;;;;;;5039417;28;20121;-65
2022/06/06 05:11:42;;;;;;;26.95;18.92;;;17.40;80.10;;;;;;5057681;28;20477;-65
2022/06/06 05:14:21;;;;;;;26.25;18.35;;;17.40;79.90;;;;;;5033752;28;20041;-65
2022/06/06 05:17:00;;;;;;;25.42;17.85;;;17.30;79.90;;;;;;5047720;28;20039;-65
2022/06/06 05:19:47;;;;;;;26.55;18.05;;;17.30;79.90;;;;;;5040139;28;20040;-65
2022/06/06 05:22:15;;;;;;;27.33;18.27;;;17.30;79.80;;;;;;5037032;28;20026;-65
2022/06/06 05:24:59;;;;;;;24.73;16.83;;;17.30;79.70;;;;;;5052668;28;20304;-66
2022/06/06 05:27:48;;;;;;;26.45;18.55;;;17.40;79.70;;;;;;5037224;28;20186;-66
2022/06/06 05:30:22;;;;;;;26.38;17.05;;;17.50;79.30;;;;;;5050986;28;20030;-66
2022/06/06 05:32:54;;;;;;;25.85;17.80;;;17.50;79.00;;;;;;5050280;28;20068;-65
2022/06/06 05:35:28;;;;;;;28.70;18.08;;;17.60;78.60;;;;;;5038003;28;20056;-66
2022/06/06 05:38:18;;;;;;;21.88;15.70;;;17.70;78.40;;;;;;5037358;28;20033;-67
2022/06/06 05:40:58;;;;;;;22.25;16.02;;;17.70;78.20;;;;;;5036210;28;20033;-66
2022/06/06 05:43:46;;;;;;;24.65;15.38;;;17.60;78.00;;;;;;5047510;28;20041;-66
2022/06/06 05:46:30;;;;;;;21.70;14.80;;;17.70;77.80;;;;;;5037132;28;20032;-66
2022/06/06 05:49:05;;;;;;;23.83;16.27;;;17.70;77.60;;;;;;5037168;28;20033;-66
2022/06/06 05:51:41;;;;;;;20.67;14.45;;;17.80;77.40;;;;;;5037542;28;20083;-66
2022/06/06 05:54:20;;;;;;;19.20;13.50;;;17.80;77.10;;;;;;5036980;28;20042;-65
2022/06/06 05:57:10;;;;;;;17.42;12.85;;;17.80;76.90;;;;;;5043518;28;20339;-66
2022/06/06 05:59:46;;;;;;;19.00;12.80;;;17.90;76.60;;;;;;5038287;28;20044;-65
2022/06/06 06:02:24;;;;;;;17.17;11.45;;;17.90;76.40;;;;;;5052760;28;20481;-65
2022/06/06 06:04:56;;;;;;;16.00;10.85;;;17.90;76.10;;;;;;5048010;28;20071;-66
2022/06/06 06:07:25;;;;;;;;;;;18.10;75.70;;;;;;5036504;28;20113;-66
2022/06/06 06:09:55;;;;;;;13.55;9.05;;;18.30;75.50;;;;;;5041893;28;19948;-65
2022/06/06 06:12:30;;;;;;;16.58;9.20;;;18.40;74.70;;;;;;5053091;28;20029;-66
2022/06/06 06:15:18;;;;;;;12.48;8.23;;;18.60;73.80;;;;;;5041238;28;20053;-65
2022/06/06 06:17:48;;;;;;;12.80;8.30;;;18.80;73.30;;;;;;5047295;28;20040;-66
2022/06/06 06:20:17;;;;;;;12.57;7.73;;;18.80;73.10;;;;;;5066589;28;20685;-67
2022/06/06 06:22:51;;;;;;;13.07;8.30;;;18.80;73.20;;;;;;5033476;28;20025;-66
2022/06/06 06:25:19;;;;;;;13.10;8.13;;;18.90;73.00;;;;;;5046959;28;20024;-66
2022/06/06 06:27:47;;;;;;;12.95;8.93;;;18.90;72.60;;;;;;5028102;28;20017;-68
2022/06/06 06:30:14;;;;;;;12.25;7.68;;;18.90;72.30;;;;;;5038410;28;20084;-66
2022/06/06 06:33:07;;;;;;;12.20;8.07;;;19.00;72.30;;;;;;5053063;28;20037;-65
2022/06/06 06:35:57;;;;;;;13.45;8.80;;;19.10;71.30;;;;;;5045099;28;20143;-66
2022/06/06 06:38:53;;;;;;;12.10;7.80;;;19.20;70.90;;;;;;5041712;28;20377;-65
2022/06/06 06:41:44;;;;;;;11.10;7.65;;;19.10;70.70;;;;;;5044741;28;20438;-66
2022/06/06 06:44:17;;;;;;;12.50;7.72;;;19.20;70.90;;;;;;5048349;28;20045;-66
2022/06/06 06:46:57;;;;;;;12.10;7.55;;;19.20;70.30;;;;;;5037182;28;20397;-66
2022/06/06 06:49:36;;;;;;;14.23;8.20;;;19.10;70.40;;;;;;5043211;28;20033;-65
2022/06/06 06:52:15;;;;;;;12.50;7.25;;;19.20;70.20;;;;;;5045337;28;20371;-65
2022/06/06 06:55:02;;;;;;;10.93;7.07;;;19.20;69.70;;;;;;5054404;28;20116;-66
2022/06/06 06:57:50;;;;;;;9.15;5.88;;;19.30;69.40;;;;;;5048318;28;20036;-66
2022/06/06 07:00:19;;;;;;;8.70;5.88;;;19.60;68.80;;;;;;5025251;28;20032;-66
2022/06/06 07:09:28;;;;;;;11.52;5.85;;;20.10;67.10;;;;;;5047755;28;20028;-65
2022/06/06 07:11:53;;;;;;;9.65;4.88;;;20.40;66.50;;;;;;5041848;28;20113;-65
2022/06/06 07:14:56;;;;;;;10.70;5.03;;;20.40;66.20;;;;;;5039520;28;20495;-66
2022/06/06 07:17:24;;;;;;;9.48;5.15;;;20.30;65.80;;;;;;5048552;28;20036;-67
2022/06/06 07:20:03;;;;;;;8.73;5.40;;;20.20;66.30;;;;;;5042224;28;20100;-66
2022/06/06 07:22:59;;;;;;;9.70;6.18;;;20.30;66.10;;;;;;5047737;28;20499;-66
2022/06/06 07:25:21;;;;;;;8.93;5.65;;;20.40;65.70;;;;;;5051272;28;20025;-67
2022/06/06 07:27:47;;;;;;;9.55;6.00;;;20.60;65.30;;;;;;5051617;28;20339;-67
2022/06/06 07:30:13;;;;;;;8.75;5.95;;;20.60;65.10;;;;;;5049611;28;20047;-67
2022/06/06 07:33:02;;;;;;;8.50;5.80;;;20.70;65.00;;;;;;5044287;28;20021;-67
2022/06/06 07:35:40;;;;;;;9.10;5.35;;;20.70;64.80;;;;;;5034040;28;20038;-66
2022/06/06 07:38:27;;;;;;;8.75;4.88;;;20.80;64.60;;;;;;5051344;28;20515;-67
2022/06/06 07:41:31;;;;;;;9.65;4.90;;;20.90;63.90;;;;;;5055111;28;20036;-67
2022/06/06 07:44:34;;;;;;;7.90;4.90;;;21.10;63.40;;;;;;5051533;28;20047;-66
2022/06/06 07:47:07;;;;;;;7.38;4.10;;;21.40;62.70;;;;;;5054666;28;20052;-66
2022/06/06 07:49:46;;;;;;;8.32;3.97;;;21.70;61.80;;;;;;5049185;28;20039;-66
2022/06/06 07:52:26;;;;;;;9.15;3.97;;;21.80;61.30;;;;;;5055076;28;20043;-66
2022/06/06 07:55:05;;;;;;;8.47;4.00;;;21.80;60.60;;;;;;5054425;28;20028;-66
2022/06/06 07:58:12;;;;;;;8.45;3.60;;;21.60;60.90;;;;;;5054925;28;20282;-67
2022/06/06 08:00:38;;;;;;;6.80;2.85;;;21.70;60.50;;;;;;5054457;28;20135;-67
2022/06/06 08:03:18;;;;;;;7.72;3.42;;;21.90;60.20;;;;;;5044866;28;20426;-66
2022/06/06 08:06:11;;;;;;;6.50;2.80;;;22.00;59.60;;;;;;5054938;28;20029;-66
2022/06/06 08:09:14;;;;;;;5.47;2.58;;;22.00;59.10;;;;;;5041035;28;20021;-66
2022/06/06 08:12:05;;;;;;;5.50;2.42;;;21.80;59.20;;;;;;5055046;28;20095;-66
2022/06/06 08:14:47;;;;;;;5.53;2.20;;;22.00;58.90;;;;;;5039710;28;20403;-66
2022/06/06 08:17:28;;;;;;;6.95;2.60;;;22.00;58.10;;;;;;5054790;28;20021;-66
2022/06/06 08:20:27;;;;;;;5.85;2.08;;;21.90;57.60;;;;;;5054328;28;20028;-66
2022/06/06 08:22:58;;;;;;;4.65;1.73;;;21.80;56.60;;;;;;5039902;28;20033;-66
2022/06/06 08:25:24;;;;;;;5.43;1.85;;;22.00;56.60;;;;;;5044535;28;20033;-66
2022/06/06 08:27:51;;;;;;;4.43;1.77;;;21.90;56.30;;;;;;5041319;28;20044;-67
2022/06/06 08:30:20;;;;;;;5.10;1.58;;;21.70;56.40;;;;;;5041927;28;20108;-67
2022/06/06 08:32:46;;;;;;;4.50;1.90;;;21.40;56.60;;;;;;5047960;28;20026;-68
2022/06/06 08:35:12;;;;;;;3.88;1.65;;;21.30;56.70;;;;;;5042847;28;20032;-67
2022/06/06 08:37:50;;;;;;;5.18;2.10;;;21.40;56.60;;;;;;5050288;28;20054;-66
2022/06/06 08:40:21;;;;;;;4.43;2.03;;;21.50;56.40;;;;;;5045589;28;20037;-67
2022/06/06 08:43:18;;;;;;;5.32;2.40;;;21.50;56.40;;;;;;5045557;28;20040;-67
2022/06/06 08:45:56;;;;;;;5.75;2.10;;;21.20;56.70;;;;;;5050170;28;20522;-67
2022/06/06 08:48:50;;;;;;;5.40;2.58;;;21.00;57.10;;;;;;5044699;28;20045;-67
2022/06/06 08:51:22;;;;;;;5.55;2.35;;;20.90;57.60;;;;;;5053422;28;20279;-67
2022/06/06 08:54:07;;;;;;;4.10;2.05;;;20.80;57.60;;;;;;5026608;28;20485;-67
2022/06/06 08:56:45;;;;;;;8.25;1.95;;;20.80;57.50;;;;;;5034119;28;20451;-67
2022/06/06 08:59:17;;;;;;;4.85;2.03;;;20.70;57.70;;;;;;5041704;28;20053;-67
2022/06/06 09:01:57;;;;;;;3.20;1.70;;;20.70;57.70;;;;;;5047699;28;20068;-67
2022/06/06 09:04:53;;;;;;;4.13;1.80;;;20.80;57.50;;;;;;5049705;28;20029;-67
2022/06/06 09:07:39;;;;;;;4.00;1.58;;;21.30;56.50;;;;;;5056165;28;20437;-67
2022/06/06 09:10:26;;;;;;;3.03;1.60;;;21.60;55.80;;;;;;5054628;28;20056;-66
2022/06/06 09:12:51;;;;;;;4.43;1.70;;;21.90;55.60;;;;;;5040420;28;20030;-66
2022/06/06 09:15:54;;;;;;;5.47;1.88;;;22.20;55.10;;;;;;5047023;28;20024;-66
2022/06/06 09:18:47;;;;;;;3.13;1.15;;;22.50;54.20;;;;;;5052395;28;20483;-64
2022/06/06 09:21:27;;;;;;;4.15;1.50;;;22.80;54.00;;;;;;5057841;28;20044;-64
2022/06/06 09:24:19;;;;;;;3.07;1.10;;;23.10;53.30;;;;;;5052459;28;20110;-65
2022/06/06 09:27:12;;;;;;;3.92;1.38;;;23.30;52.80;;;;;;5035613;28;20406;-65
2022/06/06 09:29:50;;;;;;;3.22;1.00;;;23.50;52.60;;;;;;5054986;28;20052;-65
2022/06/06 09:32:48;;;;;;;2.72;1.40;;;23.60;52.10;;;;;;5050861;28;20359;-65
2022/06/06 09:35:29;;;;;;;3.90;1.05;;;23.80;51.70;;;;;;5053412;28;20047;-65
2022/06/06 09:38:09;;;;;;;3.23;1.30;;;23.60;51.40;;;;;;5057513;28;20029;-65
2022/06/06 09:40:44;;;;;;;3.73;1.37;;;23.10;51.70;;;;;;5052281;28;20029;-66
2022/06/06 09:43:32;;;;;;;5.10;1.40;;;22.70;52.20;;;;;;5044012;28;20021;-66
2022/06/06 09:46:05;;;;;;;4.45;1.38;;;22.50;52.50;;;;;;5055021;28;20059;-66
2022/06/06 09:49:04;;;;;;;2.42;1.08;;;22.60;52.60;;;;;;5052405;28;20093;-66
2022/06/06 09:51:29;;;;;;;4.38;1.58;;;22.40;52.70;;;;;;5047411;28;20036;-66
2022/06/06 10:00:32;;;;;;;4.93;2.00;;;22.70;52.70;;;;;;5048820;28;20037;-66
2022/06/06 10:03:17;;;;;;;5.93;1.80;;;22.70;52.70;;;;;;5056653;28;20354;-66
2022/06/06 10:06:26;;;;;;;6.72;2.13;;;22.50;52.80;;;;;;5059078;28;20478;-66
2022/06/06 10:09:23;;;;;;;4.13;1.70;;;22.50;52.70;;;;;;5047999;28;20029;-67
2022/06/06 10:12:07;;;;;;;3.03;1.30;;;22.80;52.60;;;;;;5048136;28;20034;-66
2022/06/06 10:14:58;;;;;;;3.33;1.73;;;23.20;52.10;;;;;;5042402;28;20044;-66
2022/06/06 10:17:30;;;;;;;2.88;1.60;;;23.50;51.60;;;;;;5043872;28;20025;-66
2022/06/06 10:20:08;;;;;;;4.47;1.80;;;23.50;51.50;;;;;;5035598;28;20060;-67
2022/06/06 10:23:12;;;;;;;3.78;1.70;;;23.70;51.20;;;;;;5035771;28;20022;-67
2022/06/06 10:25:56;;;;;;;3.45;1.90;;;23.60;51.10;;;;;;5034776;28;20354;-67
2022/06/06 10:28:43;;;;;;;4.38;1.80;;;23.30;51.60;;;;;;5036644;28;20389;-67
2022/06/06 10:31:32;;;;;;;4.00;1.80;;;22.90;52.00;;;;;;5036444;28;20029;-67
2022/06/06 10:34:04;;;;;;;3.58;1.83;;;22.70;52.40;;;;;;5039942;28;20025;-65
2022/06/06 10:37:14;;;;;;;4.70;1.95;;;22.60;52.40;;;;;;5034724;28;20377;-66
2022/06/06 10:40:10;;;;;;;3.70;1.70;;;22.40;52.50;;;;;;5034871;28;20033;-65
2022/06/06 10:42:42;;;;;;;4.32;2.00;;;22.20;52.80;;;;;;5039365;28;20042;-66
2022/06/06 10:45:25;;;;;;;4.15;1.98;;;21.90;52.90;;;;;;5017197;28;20029;-67
2022/06/06 10:48:03;;;;;;;3.20;1.77;;;21.80;53.40;;;;;;5035135;28;20351;-67
2022/06/06 10:51:36;;;;;;;4.97;2.50;;;21.80;53.50;;;;;;5039668;28;20358;-67
2022/06/06 10:54:15;;;;;;;4.57;2.08;;;21.90;53.20;;;;;;5038787;28;20041;-67
2022/06/06 10:56:46;;;;;;;4.80;2.40;;;22.30;52.70;;;;;;5030264;28;20050;-67
2022/06/06 11:00:03;;;;;;;6.07;2.70;;;22.40;52.20;;;;;;5039080;28;20416;-67
2022/06/06 11:02:47;;;;;;;5.65;2.65;;;22.30;51.80;;;;;;5034872;28;20037;-67
2022/06/06 11:05:28;;;;;;;6.07;2.83;;;22.00;52.70;;;;;;5039684;28;20037;-67
2022/06/06 11:08:28;;;;;;;5.72;2.97;;;21.80;53.00;;;;;;5055982;28;20025;-67
2022/06/06 11:11:37;;;;;;;7.80;3.10;;;21.60;53.30;;;;;;5033550;28;20097;-68
2022/06/06 11:14:17;;;;;;;8.02;3.13;;;21.30;54.70;;;;;;5049900;28;20072;-68
2022/06/06 11:17:07;;;;;;;5.95;2.90;;;21.10;56.20;;;;;;5044184;28;20053;-68
2022/06/06 11:19:34;;;;;;;4.65;2.70;;;21.10;56.30;;;;;;5044446;28;20072;-68
2022/06/06 11:22:02;;;;;;;5.55;3.10;;;21.20;56.50;;;;;;5055590;28;20060;-67
2022/06/06 11:24:43;;;;;;;6.30;2.95;;;21.30;56.60;;;;;;5053033;28;20458;-65
2022/06/06 11:27:29;;;;;;;7.20;3.20;;;21.40;56.50;;;;;;5034776;28;20549;-65
2022/06/06 11:30:22;;;;;;;5.97;2.78;;;21.70;56.50;;;;;;5049297;28;20090;-65
2022/06/06 11:33:39;;;;;;;7.90;2.65;;;22.10;56.00;;;;;;5053565;28;20048;-66
2022/06/06 11:36:19;;;;;;;5.00;2.40;;;22.50;55.30;;;;;;5029199;28;20083;-66
2022/06/06 11:38:46;;;;;;;5.22;2.70;;;22.80;54.70;;;;;;5013204;28;20045;-67
2022/06/06 11:41:22;;;;;;;6.28;2.45;;;22.80;54.60;;;;;;5005852;28;20095;-67
2022/06/06 11:44:16;;;;;;;4.65;2.03;;;22.70;54.50;;;;;;5012618;28;20093;-67
2022/06/06 11:47:02;;;;;;;3.13;1.70;;;22.60;54.50;;;;;;5028042;28;20038;-67
2022/06/06 11:50:02;;;;;;;5.95;1.60;;;22.60;54.30;;;;;;5015011;28;20557;-66
2022/06/06 11:53:05;;;;;;;3.90;1.70;;;22.60;54.00;;;;;;5025818;28;20049;-66
2022/06/06 11:55:40;;;;;;;3.88;1.90;;;22.50;54.20;;;;;;5027900;28;20041;-66
2022/06/06 11:58:39;;;;;;;4.70;2.00;;;22.40;54.10;;;;;;5014893;28;20455;-65
2022/06/06 12:01:20;;;;;;;3.50;1.65;;;22.40;54.10;;;;;;5012472;28;20466;-67
2022/06/06 12:04:19;;;;;;;5.97;1.67;;;22.40;54.40;;;;;;5007652;28;20537;-67
2022/06/06 12:06:51;;;;;;;3.55;1.55;;;22.30;54.40;;;;;;5025530;28;20034;-67
2022/06/06 12:09:33;;;;;;;5.47;1.80;;;22.10;55.00;;;;;;5022366;28;20041;-67
2022/06/06 12:12:13;;;;;;;4.60;1.80;;;21.90;55.70;;;;;;5032317;28;20188;-67
2022/06/06 12:15:06;;;;;;;3.80;1.60;;;21.70;56.00;;;;;;5035703;28;20040;-67
2022/06/06 12:17:44;;;;;;;3.95;1.50;;;21.50;56.50;;;;;;5034871;28;20099;-66
2022/06/06 12:20:22;;;;;;;5.07;1.80;;;21.40;56.80;;;;;;5036185;28;20438;-67
2022/06/06 12:23:11;;;;;;;3.42;1.73;;;21.30;57.00;;;;;;5033845;28;20028;-67
2022/06/06 12:25:58;;;;;;;2.58;1.52;;;21.20;56.80;;;;;;5033472;28;20044;-67
2022/06/06 12:28:58;;;;;;;5.40;1.67;;;21.20;56.80;;;;;;5033747;28;20018;-67
2022/06/06 12:31:37;;;;;;;3.58;1.67;;;21.20;56.40;;;;;;5033932;28;20021;-65
2022/06/06 12:34:30;;;;;;;5.28;1.90;;;21.20;56.40;;;;;;5033075;28;20037;-66
2022/06/06 12:37:08;;;;;;;5.40;2.10;;;21.10;56.80;;;;;;5032925;28;20494;-66
2022/06/06 12:40:08;;;;;;;3.47;1.75;;;20.90;57.20;;;;;;5033391;28;20083;-66
2022/06/06 12:42:56;;;;;;;3.78;1.98;;;20.70;58.00;;;;;;5036819;28;20029;-65
2022/06/06 12:45:52;;;;;;;4.13;1.92;;;20.50;58.70;;;;;;5055597;28;20369;-66
2022/06/06 12:48:20;;;;;;;4.97;2.30;;;20.40;59.20;;;;;;5042017;28;20026;-66
2022/06/06 12:50:59;;;;;;;4.13;2.28;;;20.20;59.60;;;;;;5036769;28;20034;-66
2022/06/06 12:54:08;;;;;;;4.68;2.05;;;20.10;60.10;;;;;;5038160;28;20488;-66
2022/06/06 12:56:48;;;;;;;4.13;2.15;;;20.10;60.70;;;;;;5038740;28;20033;-66
2022/06/06 12:59:42;;;;;;;4.03;1.88;;;20.00;61.00;;;;;;5042100;28;20057;-66
2022/06/06 13:02:31;;;;;;;6.28;1.85;;;20.00;61.30;;;;;;5038762;28;20025;-65
2022/06/06 13:05:14;;;;;;;5.07;1.92;;;20.00;61.40;;;;;;5037306;28;20022;-65
2022/06/06 13:07:59;;;;;;;4.07;1.80;;;20.10;61.40;;;;;;5039949;28;20040;-66
2022/06/06 13:10:55;;;;;;;4.70;2.08;;;20.10;61.50;;;;;;5036406;28;20053;-65
2022/06/06 13:13:51;;;;;;;5.70;1.83;;;20.20;61.40;;;;;;5037796;28;20086;-65
2022/06/06 13:16:54;;;;;;;3.40;1.63;;;20.20;61.30;;;;;;5045054;28;20116;-66
2022/06/06 13:19:50;;;;;;;3.72;1.83;;;20.30;61.10;;;;;;5047031;28;20032;-67
2022/06/06 13:22:24;;;;;;;4.05;1.63;;;20.30;61.00;;;;;;5053601;28;20385;-67
2022/06/06 13:25:02;;;;;;;3.10;1.50;;;20.30;61.10;;;;;;5037938;28;20029;-67
2022/06/06 13:27:55;;;;;;;2.90;1.45;;;20.20;61.10;;;;;;5040209;28;20029;-66
2022/06/06 13:30:25;;;;;;;3.03;1.40;;;20.20;61.00;;;;;;5054971;28;20485;-66
2022/06/06 13:33:06;;;;;;;5.05;1.50;;;20.20;60.80;;;;;;5064060;28;20047;-67
2022/06/06 13:36:00;;;;;;;3.40;1.40;;;20.30;60.20;;;;;;5048665;28;20037;-66
2022/06/06 13:38:57;;;;;;;3.15;1.40;;;20.50;60.70;;;;;;5041806;28;20026;-66
2022/06/06 13:42:00;;;;;;;2.70;1.33;;;20.50;59.70;;;;;;5019114;28;20044;-66
2022/06/06 13:44:45;;;;;;;3.90;1.60;;;20.50;59.50;;;;;;5012760;28;20107;-66
2022/06/06 13:47:38;;;;;;;4.53;1.65;;;20.40;59.60;;;;;;5036073;28;20029;-65
2022/06/06 13:50:25;;;;;;;3.55;1.52;;;20.40;59.50;;;;;;5032238;28;20116;-65
2022/06/06 13:53:09;;;;;;;4.85;1.48;;;20.30;59.50;;;;;;5017849;28;20044;-65
2022/06/06 13:55:39;;;;;;;2.42;1.17;;;20.20;59.60;;;;;;5034583;28;20041;-66
2022/06/06 13:58:26;;;;;;;3.75;1.75;;;20.20;59.70;;;;;;5035287;28;20566;-66
2022/06/06 14:01:17;;;;;;;4.22;1.45;;;20.20;59.80;;;;;;5024152;28;20041;-66
2022/06/06 14:04:18;;;;;;;3.53;1.20;;;20.20;59.90;;;;;;5027801;28;20038;-66
2022/06/06 14:07:08;;;;;;;2.65;1.50;;;20.20;59.90;;;;;;5028704;28;20041;-66
2022/06/06 14:09:40;;;;;;;4.95;1.55;;;20.20;59.90;;;;;;5033702;28;20054;-67